Time;durP1;ratioP1;P1;durP2;ratioP2;P2;SDS_P1;SDS_P2;PMS_P1;PMS_P2;Temp;Humidity;BMP_temperature;BMP_pressure;BME280_temperature;BME280_humidity;BME280_pressure;Samples;Min_cycle;Max_cycle;Signal;HPM_P1;HPM_P2
2021/01/15 00:01:46;;;;;;;14.05;7.72;;;1.20;99.90;;;;;;5053903;28;20358;-72
2021/01/15 00:04:12;;;;;;;15.52;9.05;;;1.20;99.90;;;;;;5053839;28;20055;-70
2021/01/15 00:06:37;;;;;;;20.45;8.98;;;1.20;99.90;;;;;;5053078;28;20036;-72
2021/01/15 00:09:04;;;;;;;16.65;8.77;;;1.10;99.90;;;;;;5053991;28;20411;-71
2021/01/15 00:11:31;;;;;;;17.13;9.23;;;1.10;99.90;;;;;;5054411;28;20029;-68
2021/01/15 00:13:59;;;;;;;13.77;7.97;;;1.20;99.90;;;;;;5052948;28;20017;-69
2021/01/15 00:16:27;;;;;;;14.65;8.73;;;1.10;99.90;;;;;;5058446;28;20481;-72
2021/01/15 00:18:54;;;;;;;19.95;9.60;;;1.10;99.90;;;;;;5067655;28;20039;-71
2021/01/15 00:21:29;;;;;;;15.95;10.05;;;1.10;99.90;;;;;;5070819;28;20024;-69
2021/01/15 00:23:57;;;;;;;20.83;10.90;;;1.10;99.90;;;;;;5070150;28;20028;-70
2021/01/15 00:26:25;;;;;;;21.50;10.10;;;1.10;99.90;;;;;;5071981;28;20058;-73
2021/01/15 00:28:51;;;;;;;17.73;8.68;;;1.10;99.90;;;;;;5050859;28;20358;-70
2021/01/15 00:31:17;;;;;;;14.43;7.90;;;1.10;99.90;;;;;;5069562;28;20051;-71
2021/01/15 00:33:43;;;;;;;14.98;8.15;;;1.10;99.90;;;;;;5070830;28;20030;-70
2021/01/15 00:36:09;;;;;;;13.68;8.85;;;1.10;99.90;;;;;;5069473;28;20117;-71
2021/01/15 00:38:36;;;;;;;16.60;9.13;;;1.10;99.90;;;;;;5071631;28;20036;-73
2021/01/15 00:41:07;;;;;;;16.38;8.88;;;1.10;99.90;;;;;;5051866;28;20116;-70
2021/01/15 00:43:33;;;;;;;16.90;9.20;;;1.10;99.90;;;;;;5065853;28;20016;-70
2021/01/15 00:45:59;;;;;;;18.83;9.70;;;1.00;99.90;;;;;;5070923;28;20025;-69
2021/01/15 00:48:25;;;;;;;21.52;9.40;;;1.10;99.90;;;;;;5066085;28;20423;-71
2021/01/15 00:50:51;;;;;;;15.23;8.65;;;1.00;99.90;;;;;;5051604;28;20021;-70
2021/01/15 00:53:17;;;;;;;14.68;9.65;;;1.00;99.90;;;;;;5051723;28;20035;-70
2021/01/15 00:55:43;;;;;;;13.00;8.07;;;1.00;99.90;;;;;;5053130;28;20033;-69
2021/01/15 00:58:12;;;;;;;16.52;8.70;;;1.00;99.90;;;;;;5052257;28;20025;-70
2021/01/15 01:00:38;;;;;;;15.70;9.57;;;0.90;99.90;;;;;;5053331;28;20039;-71
2021/01/15 01:03:06;;;;;;;15.85;9.30;;;1.00;99.90;;;;;;5051337;28;20029;-71
2021/01/15 01:05:34;;;;;;;19.13;10.77;;;1.00;99.90;;;;;;5051243;28;20073;-70
2021/01/15 01:08:01;;;;;;;18.20;9.18;;;1.00;99.90;;;;;;5050557;28;20032;-71
2021/01/15 01:10:27;;;;;;;14.93;7.68;;;1.00;99.90;;;;;;5050070;28;20024;-70
2021/01/15 01:12:53;;;;;;;18.20;8.77;;;0.90;99.90;;;;;;5059262;28;20039;-70
2021/01/15 01:15:18;;;;;;;14.48;8.77;;;0.90;99.90;;;;;;5069822;28;20028;-70
2021/01/15 01:17:44;;;;;;;14.68;8.75;;;0.90;99.90;;;;;;5063339;28;20025;-70
2021/01/15 01:20:11;;;;;;;17.33;8.98;;;0.90;99.90;;;;;;5051186;28;20036;-70
2021/01/15 01:22:37;;;;;;;15.63;9.40;;;0.90;99.90;;;;;;5066879;28;20471;-70
2021/01/15 01:25:05;;;;;;;15.23;9.30;;;1.00;99.90;;;;;;5053198;28;20017;-69
2021/01/15 01:27:31;;;;;;;18.33;9.98;;;0.90;99.90;;;;;;5053022;28;20096;-69
2021/01/15 01:29:57;;;;;;;14.77;8.52;;;1.00;99.90;;;;;;5052955;28;20120;-70
2021/01/15 01:32:22;;;;;;;16.08;8.02;;;1.00;99.90;;;;;;5053355;28;20056;-72
2021/01/15 01:34:48;;;;;;;16.42;9.50;;;0.90;99.90;;;;;;5052314;28;20025;-70
2021/01/15 01:37:14;;;;;;;19.38;8.50;;;0.90;99.90;;;;;;5052786;28;20029;-70
2021/01/15 01:39:40;;;;;;;16.40;9.45;;;0.90;99.90;;;;;;5067410;28;20574;-68
2021/01/15 01:42:06;;;;;;;19.77;11.50;;;0.90;99.90;;;;;;5053123;28;20049;-68
2021/01/15 01:44:32;;;;;;;21.00;11.10;;;0.90;99.90;;;;;;5052918;28;20099;-70
2021/01/15 01:46:58;;;;;;;23.35;12.27;;;0.90;99.90;;;;;;5053217;28;20103;-70
2021/01/15 01:49:24;;;;;;;14.70;9.50;;;1.00;99.90;;;;;;5053652;28;20025;-74
2021/01/15 01:51:51;;;;;;;18.58;10.07;;;0.90;99.90;;;;;;5052797;28;20033;-71
2021/01/15 01:54:17;;;;;;;14.15;8.27;;;1.00;99.90;;;;;;5053263;28;20071;-68
2021/01/15 01:56:43;;;;;;;19.30;10.38;;;0.90;99.90;;;;;;5052936;28;20116;-70
2021/01/15 01:59:13;;;;;;;19.33;10.65;;;0.90;99.90;;;;;;5061164;28;20111;-71
2021/01/15 02:01:38;;;;;;;14.25;8.15;;;1.00;99.90;;;;;;5073066;28;20032;-70
2021/01/15 02:04:05;;;;;;;18.48;11.52;;;0.90;99.90;;;;;;5073061;28;20025;-69
2021/01/15 02:06:35;;;;;;;22.75;10.50;;;0.90;99.90;;;;;;5072352;28;20021;-69
2021/01/15 02:09:05;;;;;;;17.00;10.13;;;0.90;99.90;;;;;;5055071;28;20386;-70
2021/01/15 02:11:37;;;;;;;18.08;10.20;;;0.90;99.90;;;;;;5075503;28;20032;-69
2021/01/15 02:14:21;;;;;;;16.55;9.00;;;0.90;99.90;;;;;;5076962;28;20017;-70
2021/01/15 02:16:50;;;;;;;16.77;9.48;;;0.90;99.90;;;;;;5077146;28;20032;-69
2021/01/15 02:19:22;;;;;;;15.68;9.65;;;0.90;99.90;;;;;;5070352;28;20094;-69
2021/01/15 02:22:05;;;;;;;16.20;9.68;;;0.90;99.90;;;;;;5056944;28;20082;-69
2021/01/15 02:24:33;;;;;;;17.88;11.02;;;0.90;99.90;;;;;;5057095;28;20099;-69
2021/01/15 02:27:08;;;;;;;15.20;10.15;;;0.90;99.90;;;;;;5055482;28;20371;-69
2021/01/15 02:29:34;;;;;;;18.05;11.18;;;0.90;99.90;;;;;;5043842;28;20025;-69
2021/01/15 02:32:11;;;;;;;15.20;9.48;;;0.80;99.90;;;;;;5056427;28;20126;-69
2021/01/15 02:34:58;;;;;;;16.00;10.13;;;0.80;99.90;;;;;;5056514;28;20041;-69
2021/01/15 02:37:58;;;;;;;17.05;9.20;;;0.90;99.90;;;;;;5056582;28;20033;-69
2021/01/15 02:40:32;;;;;;;17.98;10.23;;;0.80;99.90;;;;;;5018427;28;20048;-69
2021/01/15 02:43:02;;;;;;;16.75;9.90;;;0.80;99.90;;;;;;5056243;28;20033;-70
2021/01/15 02:45:28;;;;;;;20.50;10.85;;;0.80;99.90;;;;;;5056267;28;20025;-69
2021/01/15 02:47:56;;;;;;;21.50;11.50;;;0.70;99.90;;;;;;5054929;28;20025;-67
2021/01/15 02:50:26;;;;;;;26.13;10.35;;;0.70;99.90;;;;;;5056530;28;20029;-69
2021/01/15 02:52:54;;;;;;;19.00;8.98;;;0.70;99.90;;;;;;5056136;28;20033;-70
2021/01/15 02:55:20;;;;;;;16.75;10.18;;;0.70;99.90;;;;;;5069949;28;20025;-69
2021/01/15 02:57:46;;;;;;;13.68;8.38;;;0.60;99.90;;;;;;5067338;28;20048;-69
2021/01/15 03:00:18;;;;;;;16.08;10.07;;;0.60;99.90;;;;;;5061939;28;20071;-69
2021/01/15 03:03:05;;;;;;;16.70;10.80;;;0.60;99.90;;;;;;5076489;28;20069;-69
2021/01/15 03:05:41;;;;;;;23.08;12.93;;;0.50;99.90;;;;;;5054727;28;20017;-68
2021/01/15 03:08:08;;;;;;;20.52;10.63;;;0.50;99.90;;;;;;5068119;28;20031;-69
2021/01/15 03:10:36;;;;;;;19.67;9.55;;;0.50;99.90;;;;;;5056974;28;20021;-69
2021/01/15 03:13:02;;;;;;;16.40;10.35;;;0.40;99.90;;;;;;5055658;28;20443;-68
2021/01/15 03:15:33;;;;;;;17.95;10.70;;;0.40;99.90;;;;;;5058842;28;20482;-68
2021/01/15 03:17:59;;;;;;;14.93;9.07;;;0.30;99.90;;;;;;5066081;28;20028;-69
2021/01/15 03:20:26;;;;;;;15.20;9.57;;;0.30;99.90;;;;;;5055716;28;20467;-68
2021/01/15 03:22:52;;;;;;;17.27;9.02;;;0.30;99.90;;;;;;5053972;28;20024;-69
2021/01/15 03:25:18;;;;;;;18.75;10.55;;;0.40;99.90;;;;;;5071171;28;20028;-68
2021/01/15 03:27:52;;;;;;;18.98;10.10;;;0.30;99.90;;;;;;5047746;28;20025;-68
2021/01/15 03:30:18;;;;;;;;;;;0.40;99.90;;;;;;5062289;28;20531;-69
2021/01/15 03:32:46;;;;;;;14.25;9.10;;;0.20;99.90;;;;;;5069706;28;19916;-69
2021/01/15 03:35:22;;;;;;;15.32;9.55;;;0.30;99.90;;;;;;5055367;28;20044;-68
2021/01/15 03:38:03;;;;;;;16.80;9.45;;;0.20;99.90;;;;;;5054799;28;20029;-68
2021/01/15 03:40:36;;;;;;;15.93;9.18;;;0.10;99.90;;;;;;5075661;28;20032;-68
2021/01/15 03:43:12;;;;;;;18.02;8.05;;;0.20;99.90;;;;;;5053589;28;20083;-68
2021/01/15 03:45:38;;;;;;;17.67;9.88;;;0.20;99.90;;;;;;5064830;28;20083;-68
2021/01/15 03:48:05;;;;;;;17.00;9.02;;;0.20;99.90;;;;;;5053911;28;20104;-68
2021/01/15 03:50:30;;;;;;;18.10;8.90;;;0.20;99.90;;;;;;5054604;28;20043;-69
2021/01/15 03:52:56;;;;;;;14.75;8.18;;;0.20;99.90;;;;;;5055184;28;20441;-68
2021/01/15 03:55:22;;;;;;;17.23;8.20;;;0.20;99.90;;;;;;5068872;28;20029;-68
2021/01/15 03:57:47;;;;;;;15.23;9.20;;;0.20;99.90;;;;;;5054599;28;20025;-68
2021/01/15 04:00:14;;;;;;;20.58;9.70;;;0.30;99.90;;;;;;5055020;28;20109;-68
2021/01/15 04:02:40;;;;;;;19.38;10.93;;;0.30;99.90;;;;;;5064718;28;20457;-68
2021/01/15 04:05:11;;;;;;;18.58;10.68;;;0.30;99.90;;;;;;5059292;28;20031;-69
2021/01/15 04:07:37;;;;;;;15.43;8.30;;;0.40;99.90;;;;;;5055395;28;20142;-68
2021/01/15 04:10:05;;;;;;;16.52;9.90;;;0.40;99.90;;;;;;5070400;28;20088;-69
2021/01/15 04:12:30;;;;;;;13.63;9.30;;;0.40;99.90;;;;;;5053340;28;20029;-69
2021/01/15 04:14:56;;;;;;;13.25;8.77;;;0.50;99.90;;;;;;5054971;28;20358;-69
2021/01/15 04:17:23;;;;;;;15.40;9.07;;;0.50;99.90;;;;;;5053800;28;20025;-68
2021/01/15 04:19:48;;;;;;;16.05;9.90;;;0.50;99.90;;;;;;5054837;28;20032;-68
2021/01/15 04:22:14;;;;;;;14.15;9.82;;;0.50;99.90;;;;;;5054613;28;20137;-69
2021/01/15 04:24:40;;;;;;;11.60;8.43;;;0.60;99.90;;;;;;5043182;28;20036;-69
2021/01/15 04:27:06;;;;;;;15.55;9.20;;;0.50;99.90;;;;;;5054217;28;20021;-68
2021/01/15 04:29:32;;;;;;;55.95;27.73;;;0.50;99.90;;;;;;5054157;28;20123;-68
2021/01/15 04:31:58;;;;;;;17.90;10.20;;;0.50;99.90;;;;;;5054249;28;20171;-68
2021/01/15 04:34:23;;;;;;;19.40;9.60;;;0.50;99.90;;;;;;5059009;28;20028;-68
2021/01/15 04:36:49;;;;;;;20.35;10.95;;;0.50;99.90;;;;;;5059826;28;20458;-69
2021/01/15 04:39:15;;;;;;;14.32;8.82;;;0.50;99.90;;;;;;5066448;28;20112;-69
2021/01/15 04:41:47;;;;;;;17.08;10.23;;;0.50;99.90;;;;;;5055019;28;20025;-68
2021/01/15 04:44:13;;;;;;;13.98;9.35;;;0.60;99.90;;;;;;5061489;28;20079;-70
2021/01/15 04:46:40;;;;;;;11.52;7.90;;;0.60;99.90;;;;;;5055727;28;20056;-67
2021/01/15 04:49:09;;;;;;;16.20;8.57;;;0.60;99.90;;;;;;5054169;28;20040;-70
2021/01/15 04:51:36;;;;;;;16.63;9.30;;;0.60;99.90;;;;;;5054268;28;20067;-69
2021/01/15 04:54:04;;;;;;;16.92;8.85;;;0.60;99.90;;;;;;5053876;28;20104;-68
2021/01/15 04:56:55;;;;;;;19.60;10.30;;;0.50;99.90;;;;;;5053518;28;20082;-68
2021/01/15 04:59:22;;;;;;;10.38;6.38;;;0.50;99.90;;;;;;5053579;28;20041;-69
2021/01/15 05:01:49;;;;;;;17.83;10.25;;;0.60;99.90;;;;;;5053739;28;20032;-68
2021/01/15 05:04:18;;;;;;;17.17;9.32;;;0.60;99.90;;;;;;5053932;28;20021;-70
2021/01/15 05:06:46;;;;;;;16.30;9.45;;;0.60;99.90;;;;;;5053302;28;20083;-68
2021/01/15 05:09:17;;;;;;;12.70;8.30;;;0.60;99.90;;;;;;5053770;28;20025;-69
2021/01/15 05:11:44;;;;;;;15.35;8.40;;;0.50;99.90;;;;;;5053347;28;20036;-68
2021/01/15 05:14:16;;;;;;;16.38;9.05;;;0.60;99.90;;;;;;5036564;28;20481;-70
2021/01/15 05:16:47;;;;;;;19.33;10.45;;;0.50;99.90;;;;;;5053686;28;20029;-69
2021/01/15 05:19:14;;;;;;;15.85;9.70;;;0.50;99.90;;;;;;5053440;28;20488;-71
2021/01/15 05:21:41;;;;;;;19.52;11.00;;;0.50;99.90;;;;;;5053269;28;20078;-70
2021/01/15 05:24:08;;;;;;;21.30;11.07;;;0.50;99.90;;;;;;5052691;28;20025;-69
2021/01/15 05:26:38;;;;;;;25.55;13.40;;;0.50;99.90;;;;;;5053590;28;20086;-68
2021/01/15 05:29:08;;;;;;;24.40;12.75;;;0.50;99.90;;;;;;5052499;28;20112;-70
2021/01/15 05:32:01;;;;;;;23.20;13.68;;;0.50;99.90;;;;;;5053004;28;20509;-68
2021/01/15 05:34:28;;;;;;;21.98;12.32;;;0.40;99.90;;;;;;5053294;28;20035;-69
2021/01/15 05:36:55;;;;;;;23.25;12.57;;;0.40;99.90;;;;;;5053516;28;20033;-69
2021/01/15 05:39:25;;;;;;;25.05;13.63;;;0.40;99.90;;;;;;5067140;28;20024;-70
2021/01/15 05:41:58;;;;;;;28.20;13.57;;;0.40;99.90;;;;;;5057942;28;20495;-69
2021/01/15 05:44:32;;;;;;;28.08;14.82;;;0.40;99.90;;;;;;5066369;28;20541;-69
2021/01/15 05:47:00;;;;;;;21.60;12.75;;;0.30;99.90;;;;;;5039260;28;20017;-69
2021/01/15 05:49:26;;;;;;;24.45;12.00;;;0.40;99.90;;;;;;5050268;28;20036;-68
2021/01/15 05:51:51;;;;;;;21.77;13.10;;;0.30;99.90;;;;;;5069904;28;20013;-69
2021/01/15 05:54:36;;;;;;;24.42;12.68;;;0.30;99.90;;;;;;5071264;28;20021;-70
2021/01/15 05:57:03;;;;;;;22.52;11.80;;;0.30;99.90;;;;;;5070294;28;20028;-70
2021/01/15 05:59:29;;;;;;;22.17;12.98;;;0.20;99.90;;;;;;5059144;28;20032;-71
2021/01/15 06:01:59;;;;;;;24.27;13.00;;;0.30;99.90;;;;;;5066396;28;20017;-68
2021/01/15 06:04:38;;;;;;;25.52;13.55;;;0.30;99.90;;;;;;5054349;28;20028;-69
2021/01/15 06:07:10;;;;;;;29.80;15.82;;;0.20;99.90;;;;;;5051572;28;20033;-69
2021/01/15 06:09:40;;;;;;;27.65;13.60;;;0.20;99.90;;;;;;5052289;28;20040;-68
2021/01/15 06:12:14;;;;;;;33.70;14.75;;;0.20;99.90;;;;;;5052795;28;20017;-67
2021/01/15 06:14:49;;;;;;;29.45;15.18;;;0.20;99.90;;;;;;5053113;28;20025;-69
2021/01/15 06:17:20;;;;;;;32.45;15.38;;;0.20;99.90;;;;;;5051364;28;20082;-68
2021/01/15 06:19:57;;;;;;;27.75;15.93;;;0.20;99.90;;;;;;5051178;28;20140;-69
2021/01/15 06:22:29;;;;;;;43.22;23.02;;;0.20;99.90;;;;;;5052557;28;20016;-69
2021/01/15 06:25:17;;;;;;;42.72;20.20;;;0.30;99.90;;;;;;5052546;28;20036;-68
2021/01/15 06:27:43;;;;;;;36.60;18.45;;;0.20;99.90;;;;;;5058266;28;20028;-70
2021/01/15 06:30:25;;;;;;;35.22;19.48;;;0.20;99.90;;;;;;5060342;28;20033;-67
2021/01/15 06:32:52;;;;;;;39.13;21.20;;;0.20;99.90;;;;;;5051524;28;20021;-71
2021/01/15 06:35:33;;;;;;;29.80;17.63;;;0.30;99.90;;;;;;5054802;28;20025;-70
2021/01/15 06:38:19;;;;;;;29.20;17.40;;;0.20;99.90;;;;;;5041017;28;20024;-69
2021/01/15 06:40:47;;;;;;;27.30;12.50;;;0.30;99.90;;;;;;5061430;28;20048;-68
2021/01/15 06:43:33;;;;;;;29.98;14.68;;;0.20;99.90;;;;;;5052554;28;20059;-68
2021/01/15 06:46:03;;;;;;;23.33;14.38;;;0.30;99.90;;;;;;5052172;28;20497;-70
2021/01/15 06:48:35;;;;;;;26.60;15.60;;;0.30;99.90;;;;;;5052709;28;20048;-69
2021/01/15 06:51:02;;;;;;;31.48;17.98;;;0.30;99.90;;;;;;5052798;28;20064;-69
2021/01/15 06:53:30;;;;;;;35.75;18.65;;;0.40;99.90;;;;;;5051878;28;20025;-70
2021/01/15 06:55:58;;;;;;;30.65;16.98;;;0.50;99.90;;;;;;5052907;28;20025;-69
2021/01/15 06:58:24;;;;;;;27.90;16.33;;;0.50;99.90;;;;;;5055568;28;20108;-69
2021/01/15 07:01:25;;;;;;;30.42;16.98;;;0.50;99.90;;;;;;5055968;28;20506;-70
2021/01/15 07:03:51;;;;;;;36.53;19.75;;;0.60;99.90;;;;;;5056101;28;20502;-69
2021/01/15 07:06:30;;;;;;;41.95;20.17;;;0.60;99.90;;;;;;5061783;28;20132;-70
2021/01/15 07:09:01;;;;;;;42.33;22.08;;;0.70;99.90;;;;;;5040496;28;20041;-69
2021/01/15 07:11:28;;;;;;;37.58;19.15;;;0.80;99.90;;;;;;5046079;28;20128;-67
2021/01/15 07:13:59;;;;;;;41.13;18.48;;;1.00;99.90;;;;;;5054584;28;20021;-69
2021/01/15 07:16:36;;;;;;;34.58;20.63;;;1.00;99.90;;;;;;5054561;28;20052;-71
2021/01/15 07:19:05;;;;;;;43.70;22.23;;;1.00;99.90;;;;;;5059199;28;20016;-68
2021/01/15 07:21:38;;;;;;;44.10;21.95;;;1.10;99.90;;;;;;5071913;28;20086;-69
2021/01/15 07:24:11;;;;;;;44.90;23.10;;;1.10;99.90;;;;;;5059038;28;20091;-68
2021/01/15 07:26:39;;;;;;;40.50;21.83;;;1.00;99.90;;;;;;5060009;28;20107;-69
2021/01/15 07:29:10;;;;;;;48.00;24.52;;;1.10;99.90;;;;;;5067856;28;20020;-69
2021/01/15 07:31:50;;;;;;;44.05;25.02;;;1.00;99.90;;;;;;5070976;28;20067;-69
2021/01/15 07:34:24;;;;;;;71.18;29.83;;;1.10;99.90;;;;;;5064577;28;20115;-69
2021/01/15 07:36:50;;;;;;;46.25;27.30;;;1.10;99.90;;;;;;5057093;28;21929;-68
2021/01/15 07:39:19;;;;;;;43.50;21.48;;;1.10;99.90;;;;;;5057515;28;20021;-69
2021/01/15 07:41:52;;;;;;;38.53;19.90;;;1.10;99.90;;;;;;5048229;28;20017;-68
2021/01/15 07:44:21;;;;;;;;;;;1.20;99.90;;;;;;5059562;28;20028;-67
2021/01/15 07:46:58;;;;;;;36.03;19.90;;;1.20;99.90;;;;;;5055672;28;19911;-69
2021/01/15 07:49:24;;;;;;;42.10;19.27;;;1.20;99.90;;;;;;5054563;28;20040;-69
2021/01/15 07:52:04;;;;;;;41.63;19.48;;;1.20;99.90;;;;;;5054660;28;20079;-69
2021/01/15 07:54:57;;;;;;;35.13;17.25;;;1.20;99.90;;;;;;5046595;28;20439;-69
2021/01/15 07:57:24;;;;;;;41.25;20.88;;;1.20;99.90;;;;;;5052954;28;20021;-68
2021/01/15 07:59:50;;;;;;;44.22;22.50;;;1.30;99.90;;;;;;5054000;28;20386;-70
2021/01/15 08:02:18;;;;;;;48.45;23.90;;;1.40;99.90;;;;;;5063360;28;20116;-68
2021/01/15 08:04:43;;;;;;;61.30;29.35;;;1.50;99.90;;;;;;5068756;28;20458;-68
2021/01/15 08:07:18;;;;;;;65.35;34.22;;;1.50;99.90;;;;;;5053215;28;20074;-69
2021/01/15 08:09:44;;;;;;;59.55;31.85;;;1.40;99.90;;;;;;5061881;28;20028;-71
2021/01/15 08:12:10;;;;;;;55.50;28.75;;;1.30;99.90;;;;;;5055594;28;20047;-70
2021/01/15 08:14:35;;;;;;;57.83;31.42;;;1.30;99.90;;;;;;5065806;28;20036;-70
2021/01/15 08:17:10;;;;;;;54.33;28.10;;;1.30;99.90;;;;;;5065936;28;20059;-70
2021/01/15 08:19:37;;;;;;;46.92;24.00;;;1.40;99.90;;;;;;5064317;28;20104;-69
2021/01/15 08:22:07;;;;;;;32.70;19.00;;;1.30;99.90;;;;;;5068414;28;20025;-68
2021/01/15 08:24:43;;;;;;;29.33;16.50;;;1.50;99.90;;;;;;5064094;28;20035;-69
2021/01/15 08:27:18;;;;;;;34.67;20.13;;;1.50;99.90;;;;;;5069091;28;20020;-69
2021/01/15 08:29:44;;;;;;;36.05;18.00;;;1.60;99.90;;;;;;5069523;28;20087;-71
2021/01/15 08:32:11;;;;;;;30.13;16.92;;;1.80;99.90;;;;;;5052813;28;20053;-69
2021/01/15 08:34:38;;;;;;;28.63;16.33;;;2.00;99.90;;;;;;5066581;28;20036;-72
2021/01/15 08:37:06;;;;;;;27.33;16.25;;;1.90;99.90;;;;;;5052078;28;20085;-68
2021/01/15 08:39:55;;;;;;;30.50;17.30;;;2.00;99.90;;;;;;5048256;28;20429;-69
2021/01/15 08:42:21;;;;;;;35.58;16.60;;;2.00;99.90;;;;;;5066769;28;20052;-69
2021/01/15 08:44:48;;;;;;;30.95;18.83;;;2.20;99.90;;;;;;5044418;28;20445;-71
2021/01/15 08:47:17;;;;;;;32.25;17.50;;;2.30;99.90;;;;;;5070589;28;20119;-70
2021/01/15 08:49:54;;;;;;;31.20;16.77;;;2.40;99.90;;;;;;5069296;28;20032;-70
2021/01/15 08:52:32;;;;;;;40.92;21.05;;;2.60;99.90;;;;;;5066304;28;20103;-70
2021/01/15 08:55:02;;;;;;;39.08;19.45;;;2.50;99.90;;;;;;5062614;28;20047;-69
2021/01/15 08:57:29;;;;;;;45.25;23.65;;;2.70;99.90;;;;;;5068441;28;20355;-69
2021/01/15 08:59:55;;;;;;;53.33;27.50;;;2.70;99.90;;;;;;5070528;28;20389;-70
2021/01/15 09:02:22;;;;;;;47.33;24.70;;;2.90;99.90;;;;;;5066850;28;20044;-70
2021/01/15 09:04:49;;;;;;;45.65;21.75;;;2.90;99.90;;;;;;5061337;28;20028;-71
2021/01/15 09:07:17;;;;;;;42.42;21.25;;;3.00;99.90;;;;;;5066940;28;20099;-69
2021/01/15 09:09:44;;;;;;;38.65;20.45;;;3.00;99.90;;;;;;5067124;28;20033;-70
2021/01/15 09:12:10;;;;;;;34.40;17.65;;;3.10;99.90;;;;;;5055242;28;20052;-68
2021/01/15 09:14:36;;;;;;;40.65;19.60;;;3.20;99.90;;;;;;5059896;28;20056;-72
2021/01/15 09:17:04;;;;;;;36.40;19.83;;;3.20;99.90;;;;;;5044070;28;20029;-70
2021/01/15 09:19:31;;;;;;;33.65;17.08;;;3.30;99.90;;;;;;5057238;28;20505;-70
2021/01/15 09:22:01;;;;;;;31.00;16.23;;;3.20;99.90;;;;;;5069603;28;20021;-69
2021/01/15 09:24:30;;;;;;;30.52;16.70;;;3.20;99.90;;;;;;5065923;28;20020;-70
2021/01/15 09:27:00;;;;;;;26.27;13.80;;;3.40;99.90;;;;;;5067374;28;20024;-71
2021/01/15 09:29:27;;;;;;;36.47;17.45;;;3.60;99.90;;;;;;5068113;28;20095;-70
2021/01/15 09:31:53;;;;;;;30.27;17.45;;;3.80;99.90;;;;;;5067901;28;20056;-70
2021/01/15 09:34:22;;;;;;;33.78;19.02;;;3.90;99.90;;;;;;5066473;28;20124;-68
2021/01/15 09:36:49;;;;;;;39.20;18.15;;;4.00;99.90;;;;;;5069551;28;20028;-70
2021/01/15 09:39:17;;;;;;;29.90;15.63;;;4.00;99.90;;;;;;5067264;28;20033;-70
2021/01/15 09:41:49;;;;;;;32.72;18.17;;;4.10;99.90;;;;;;5060910;28;20032;-68
2021/01/15 09:44:16;;;;;;;35.35;17.85;;;3.90;99.90;;;;;;5071274;28;20025;-73
2021/01/15 09:46:42;;;;;;;34.08;18.65;;;4.10;99.90;;;;;;5065844;28;20020;-69
2021/01/15 09:49:08;;;;;;;46.45;22.67;;;4.10;99.90;;;;;;5066600;28;20131;-69
2021/01/15 09:51:34;;;;;;;39.40;19.85;;;4.20;99.90;;;;;;5065867;28;20088;-70
2021/01/15 09:54:00;;;;;;;32.05;16.10;;;4.20;99.90;;;;;;5068628;28;20029;-71
2021/01/15 09:56:33;;;;;;;46.78;23.45;;;3.80;99.90;;;;;;5049936;28;20021;-69
2021/01/15 09:59:01;;;;;;;35.42;16.35;;;3.60;99.90;;;;;;5064847;28;20036;-69
2021/01/15 10:01:28;;;;;;;54.97;26.88;;;3.40;99.90;;;;;;5068653;28;20161;-68
2021/01/15 10:03:55;;;;;;;44.17;21.92;;;3.30;99.90;;;;;;5068968;28;20028;-69
2021/01/15 10:06:22;;;;;;;36.55;18.08;;;3.30;99.90;;;;;;5066704;28;20021;-71
2021/01/15 10:08:49;;;;;;;43.80;23.73;;;3.10;99.90;;;;;;5066413;28;20317;-68
2021/01/15 10:11:25;;;;;;;35.00;19.30;;;3.00;99.90;;;;;;5068703;28;20170;-70
2021/01/15 10:13:54;;;;;;;31.35;17.40;;;3.20;99.90;;;;;;5059950;28;20036;-70
2021/01/15 10:16:20;;;;;;;49.15;26.75;;;3.10;99.90;;;;;;5046989;28;20025;-68
2021/01/15 10:18:45;;;;;;;56.63;29.38;;;3.10;99.90;;;;;;5051839;28;20037;-71
2021/01/15 10:21:11;;;;;;;60.45;27.65;;;3.00;99.90;;;;;;5051152;28;20027;-69
2021/01/15 10:23:37;;;;;;;51.65;24.40;;;2.90;99.90;;;;;;5057539;28;20037;-70
2021/01/15 10:26:04;;;;;;;50.30;24.00;;;2.80;99.90;;;;;;5053863;28;20029;-68
2021/01/15 10:28:30;;;;;;;42.22;22.63;;;3.00;99.90;;;;;;5043268;28;20104;-72
2021/01/15 10:30:56;;;;;;;35.13;20.02;;;3.00;99.90;;;;;;5051516;28;20052;-71
2021/01/15 10:33:23;;;;;;;51.22;25.42;;;2.80;99.90;;;;;;5052122;28;20025;-70
2021/01/15 10:35:49;;;;;;;41.50;24.10;;;3.10;99.90;;;;;;5055166;28;20094;-68
2021/01/15 10:38:15;;;;;;;52.80;23.80;;;3.20;99.90;;;;;;5058291;28;20017;-70
2021/01/15 10:40:45;;;;;;;43.40;22.95;;;3.30;99.90;;;;;;5060185;28;20025;-71
2021/01/15 10:43:12;;;;;;;45.50;23.80;;;3.40;99.90;;;;;;5066020;28;20025;-70
2021/01/15 10:45:38;;;;;;;35.15;20.23;;;3.50;99.90;;;;;;5061406;28;20033;-69
2021/01/15 10:48:06;;;;;;;33.05;18.30;;;3.40;99.90;;;;;;5054894;28;20028;-69
2021/01/15 10:50:31;;;;;;;39.75;19.38;;;3.50;99.90;;;;;;5041864;28;20033;-70
2021/01/15 10:52:57;;;;;;;42.28;22.98;;;3.50;99.90;;;;;;5055340;28;20017;-72
2021/01/15 10:55:23;;;;;;;42.22;20.52;;;3.70;99.90;;;;;;5054214;28;20025;-72
2021/01/15 10:57:49;;;;;;;28.10;16.35;;;3.70;99.90;;;;;;5055047;28;20051;-71
2021/01/15 11:00:16;;;;;;;37.78;18.83;;;3.90;99.90;;;;;;5053452;28;20029;-72
2021/01/15 11:02:49;;;;;;;33.40;19.58;;;3.80;99.90;;;;;;5069483;28;20033;-72
2021/01/15 11:05:15;;;;;;;38.80;19.45;;;3.70;99.90;;;;;;5061682;28;20040;-72
2021/01/15 11:07:42;;;;;;;38.42;20.73;;;3.60;99.90;;;;;;5047881;28;20017;-69
2021/01/15 11:10:08;;;;;;;33.78;17.85;;;3.60;99.90;;;;;;5054107;28;20040;-69
2021/01/15 11:12:34;;;;;;;38.10;20.65;;;3.60;99.90;;;;;;5054327;28;20032;-71
2021/01/15 11:14:59;;;;;;;47.03;22.75;;;3.60;99.90;;;;;;5054112;28;20138;-71
2021/01/15 11:17:25;;;;;;;43.28;23.45;;;3.70;99.90;;;;;;5056837;28;20115;-71
2021/01/15 11:19:51;;;;;;;40.25;22.50;;;3.70;99.90;;;;;;5053710;28;20029;-70
2021/01/15 11:22:17;;;;;;;48.80;27.00;;;3.70;99.90;;;;;;5054364;28;20130;-71
2021/01/15 11:24:42;;;;;;;48.65;23.15;;;4.00;99.90;;;;;;5055217;28;20032;-69
2021/01/15 11:27:08;;;;;;;47.40;24.48;;;4.00;99.90;;;;;;5058091;28;20467;-71
2021/01/15 11:29:34;;;;;;;48.42;25.35;;;4.00;99.90;;;;;;5053104;28;20047;-71
2021/01/15 11:31:59;;;;;;;48.05;22.70;;;3.90;99.90;;;;;;5053491;28;20049;-70
2021/01/15 11:34:25;;;;;;;75.13;36.75;;;3.70;99.90;;;;;;5045390;28;20033;-72
2021/01/15 11:36:51;;;;;;;47.17;25.05;;;3.60;99.90;;;;;;5053035;28;20367;-69
2021/01/15 11:39:17;;;;;;;87.38;39.85;;;3.70;99.90;;;;;;5069998;28;20060;-73
2021/01/15 11:41:43;;;;;;;81.57;35.67;;;3.50;99.90;;;;;;5035716;28;20029;-72
2021/01/15 11:44:10;;;;;;;52.03;24.08;;;3.60;99.90;;;;;;5050313;28;20082;-69
2021/01/15 11:46:36;;;;;;;35.28;19.27;;;3.60;99.90;;;;;;5053670;28;20095;-71
2021/01/15 11:49:03;;;;;;;34.38;18.50;;;3.70;99.90;;;;;;5045747;28;20029;-71
2021/01/15 11:51:29;;;;;;;35.17;19.40;;;3.80;99.90;;;;;;5054199;28;20123;-70
2021/01/15 11:53:54;;;;;;;35.88;20.50;;;3.80;99.90;;;;;;5061624;28;20104;-71
2021/01/15 11:56:21;;;;;;;43.92;21.63;;;3.70;99.90;;;;;;5053873;28;20052;-71
2021/01/15 11:58:47;;;;;;;50.58;24.05;;;3.80;99.90;;;;;;5057231;28;20028;-71
2021/01/15 12:01:15;;;;;;;42.67;21.15;;;3.80;99.90;;;;;;5053853;28;20042;-70
2021/01/15 12:03:41;;;;;;;33.17;18.85;;;3.80;99.90;;;;;;5065619;28;20460;-73
2021/01/15 12:06:07;;;;;;;30.48;17.08;;;3.90;99.90;;;;;;5054486;28;20017;-72
2021/01/15 12:08:33;;;;;;;33.30;17.45;;;3.90;99.90;;;;;;5063022;28;20078;-71
2021/01/15 12:11:02;;;;;;;29.50;17.58;;;3.90;99.90;;;;;;5039146;28;20033;-70
2021/01/15 12:13:29;;;;;;;30.75;17.67;;;3.80;99.90;;;;;;5053205;28;20490;-73
2021/01/15 12:15:56;;;;;;;29.75;16.55;;;3.80;99.90;;;;;;5053710;28;20017;-72
2021/01/15 12:18:23;;;;;;;38.75;20.55;;;4.20;99.90;;;;;;5053771;28;20032;-70
2021/01/15 12:20:49;;;;;;;36.60;21.98;;;4.30;99.90;;;;;;5052986;28;20028;-71
2021/01/15 12:23:17;;;;;;;34.60;19.13;;;4.40;99.90;;;;;;5056614;28;20032;-73
2021/01/15 12:25:43;;;;;;;51.55;25.77;;;4.20;99.90;;;;;;5041834;28;20025;-71
2021/01/15 12:28:10;;;;;;;30.42;17.38;;;4.20;99.90;;;;;;5053487;28;20025;-69
2021/01/15 12:30:36;;;;;;;42.05;21.48;;;4.00;99.90;;;;;;5053266;28;20482;-70
2021/01/15 12:33:21;;;;;;;29.27;14.48;;;4.00;99.90;;;;;;5053812;28;20105;-72
2021/01/15 12:35:49;;;;;;;26.92;14.90;;;3.90;99.90;;;;;;5048261;28;20082;-71
2021/01/15 12:38:19;;;;;;;38.75;20.85;;;3.80;99.90;;;;;;5055769;28;20081;-69
2021/01/15 12:40:46;;;;;;;31.42;16.70;;;3.70;99.90;;;;;;5051838;28;20055;-72
2021/01/15 12:43:13;;;;;;;35.05;20.50;;;3.60;99.90;;;;;;5053064;28;20463;-70
2021/01/15 12:45:44;;;;;;;36.42;17.15;;;3.50;99.90;;;;;;5053288;28;20057;-73
2021/01/15 12:48:12;;;;;;;40.80;20.83;;;3.50;99.90;;;;;;5054289;28;20025;-73
2021/01/15 12:50:37;;;;;;;39.45;23.45;;;3.50;99.90;;;;;;5054079;28;20111;-71